sensor_id;sensor_type;location;lat;lon;timestamp;temperature;humidity
64034;SHT31;50280;49.864;8.638;2023-02-28T00:00:56;-0.17;64.62
64034;SHT31;50280;49.864;8.638;2023-02-28T00:03:28;-0.17;64.55
64034;SHT31;50280;49.864;8.638;2023-02-28T00:06:02;-0.19;64.92
64034;SHT31;50280;49.864;8.638;2023-02-28T00:08:36;-0.24;64.83
64034;SHT31;50280;49.864;8.638;2023-02-28T00:11:09;-0.26;65.03
64034;SHT31;50280;49.864;8.638;2023-02-28T00:13:43;-0.24;64.97
64034;SHT31;50280;49.864;8.638;2023-02-28T00:16:19;-0.28;65.02
64034;SHT31;50280;49.864;8.638;2023-02-28T00:18:53;-0.30;65.24
64034;SHT31;50280;49.864;8.638;2023-02-28T00:21:26;-0.28;65.36
64034;SHT31;50280;49.864;8.638;2023-02-28T00:23:58;-0.31;65.43
64034;SHT31;50280;49.864;8.638;2023-02-28T00:26:34;-0.33;65.69
64034;SHT31;50280;49.864;8.638;2023-02-28T00:29:06;-0.36;65.52
64034;SHT31;50280;49.864;8.638;2023-02-28T00:31:38;-0.37;65.67
64034;SHT31;50280;49.864;8.638;2023-02-28T00:34:10;-0.41;65.82
64034;SHT31;50280;49.864;8.638;2023-02-28T00:36:43;-0.45;66.11
64034;SHT31;50280;49.864;8.638;2023-02-28T00:39:15;-0.47;66.27
64034;SHT31;50280;49.864;8.638;2023-02-28T00:41:48;-0.48;66.28
64034;SHT31;50280;49.864;8.638;2023-02-28T00:44:20;-0.51;66.46
64034;SHT31;50280;49.864;8.638;2023-02-28T00:46:52;-0.54;66.58
64034;SHT31;50280;49.864;8.638;2023-02-28T00:49:24;-0.54;66.66
64034;SHT31;50280;49.864;8.638;2023-02-28T00:51:59;-0.54;66.62
64034;SHT31;50280;49.864;8.638;2023-02-28T00:54:31;-0.60;66.76
64034;SHT31;50280;49.864;8.638;2023-02-28T00:57:03;-0.58;66.83
64034;SHT31;50280;49.864;8.638;2023-02-28T00:59:35;-0.58;66.85
64034;SHT31;50280;49.864;8.638;2023-02-28T01:02:07;-0.61;66.97
64034;SHT31;50280;49.864;8.638;2023-02-28T01:04:39;-0.62;67.09
64034;SHT31;50280;49.864;8.638;2023-02-28T01:07:13;-0.64;67.34
64034;SHT31;50280;49.864;8.638;2023-02-28T01:09:45;-0.65;67.38
64034;SHT31;50280;49.864;8.638;2023-02-28T01:12:17;-0.66;67.46
64034;SHT31;50280;49.864;8.638;2023-02-28T01:14:49;-0.68;67.48
64034;SHT31;50280;49.864;8.638;2023-02-28T01:17:21;-0.69;67.46
64034;SHT31;50280;49.864;8.638;2023-02-28T01:19:53;-0.69;67.52
64034;SHT31;50280;49.864;8.638;2023-02-28T01:22:28;-0.68;67.59
64034;SHT31;50280;49.864;8.638;2023-02-28T01:25:00;-0.69;67.69
64034;SHT31;50280;49.864;8.638;2023-02-28T01:27:33;-0.69;67.83
64034;SHT31;50280;49.864;8.638;2023-02-28T01:30:05;-0.72;67.89
64034;SHT31;50280;49.864;8.638;2023-02-28T01:32:39;-0.68;67.89
64034;SHT31;50280;49.864;8.638;2023-02-28T01:35:11;-0.68;67.70
64034;SHT31;50280;49.864;8.638;2023-02-28T01:37:45;-0.69;67.85
64034;SHT31;50280;49.864;8.638;2023-02-28T01:40:17;-0.71;67.92
64034;SHT31;50280;49.864;8.638;2023-02-28T01:42:49;-0.71;67.89
64034;SHT31;50280;49.864;8.638;2023-02-28T01:45:22;-0.68;67.89
64034;SHT31;50280;49.864;8.638;2023-02-28T01:48:00;-0.69;67.92
64034;SHT31;50280;49.864;8.638;2023-02-28T01:50:37;-0.69;68.10
64034;SHT31;50280;49.864;8.638;2023-02-28T01:53:16;-0.71;67.99
64034;SHT31;50280;49.864;8.638;2023-02-28T01:55:55;-0.71;68.08
64034;SHT31;50280;49.864;8.638;2023-02-28T01:58:28;-0.72;68.27
64034;SHT31;50280;49.864;8.638;2023-02-28T02:01:00;-0.75;68.39
64034;SHT31;50280;49.864;8.638;2023-02-28T02:03:32;-0.76;68.61
64034;SHT31;50280;49.864;8.638;2023-02-28T02:06:07;-0.75;68.66
64034;SHT31;50280;49.864;8.638;2023-02-28T02:08:40;-0.73;68.66
64034;SHT31;50280;49.864;8.638;2023-02-28T02:11:12;-0.75;68.65
64034;SHT31;50280;49.864;8.638;2023-02-28T02:13:57;-0.76;68.72
64034;SHT31;50280;49.864;8.638;2023-02-28T02:16:57;-0.78;68.84
64034;SHT31;50280;49.864;8.638;2023-02-28T02:23:22;-0.78;69.04
64034;SHT31;50280;49.864;8.638;2023-02-28T02:26:28;-0.79;69.25
64034;SHT31;50280;49.864;8.638;2023-02-28T02:29:41;-0.78;69.48
64034;SHT31;50280;49.864;8.638;2023-02-28T02:32:47;-0.79;69.73
64034;SHT31;50280;49.864;8.638;2023-02-28T02:35:39;-0.81;69.76
64034;SHT31;50280;49.864;8.638;2023-02-28T02:38:29;-0.82;69.98
64034;SHT31;50280;49.864;8.638;2023-02-28T02:41:11;-0.85;70.12
64034;SHT31;50280;49.864;8.638;2023-02-28T02:43:52;-0.85;70.26
64034;SHT31;50280;49.864;8.638;2023-02-28T02:46:34;-0.85;70.29
64034;SHT31;50280;49.864;8.638;2023-02-28T02:49:11;-0.83;70.34
64034;SHT31;50280;49.864;8.638;2023-02-28T02:51:52;-0.86;70.34
64034;SHT31;50280;49.864;8.638;2023-02-28T02:54:30;-0.88;70.33
64034;SHT31;50280;49.864;8.638;2023-02-28T02:57:08;-0.89;70.51
64034;SHT31;50280;49.864;8.638;2023-02-28T02:59:47;-0.92;70.67
64034;SHT31;50280;49.864;8.638;2023-02-28T03:02:24;-0.93;70.64
64034;SHT31;50280;49.864;8.638;2023-02-28T03:05:01;-0.92;70.71
64034;SHT31;50280;49.864;8.638;2023-02-28T03:07:41;-0.95;70.70
64034;SHT31;50280;49.864;8.638;2023-02-28T03:10:29;-0.96;70.83
64034;SHT31;50280;49.864;8.638;2023-02-28T03:13:11;-0.97;70.82
64034;SHT31;50280;49.864;8.638;2023-02-28T03:16:27;-1.00;70.86
64034;SHT31;50280;49.864;8.638;2023-02-28T03:19:12;-1.00;70.95
64034;SHT31;50280;49.864;8.638;2023-02-28T03:22:09;-1.04;70.97
64034;SHT31;50280;49.864;8.638;2023-02-28T03:25:04;-1.09;71.20
64034;SHT31;50280;49.864;8.638;2023-02-28T03:27:46;-1.10;71.15
64034;SHT31;50280;49.864;8.638;2023-02-28T03:30:35;-1.11;71.28
64034;SHT31;50280;49.864;8.638;2023-02-28T03:33:17;-1.16;71.19
64034;SHT31;50280;49.864;8.638;2023-02-28T03:35:55;-1.13;71.36
64034;SHT31;50280;49.864;8.638;2023-02-28T03:38:34;-1.14;71.41
64034;SHT31;50280;49.864;8.638;2023-02-28T03:41:15;-1.17;71.52
64034;SHT31;50280;49.864;8.638;2023-02-28T03:43:53;-1.20;71.57
64034;SHT31;50280;49.864;8.638;2023-02-28T03:46:31;-1.18;71.74
64034;SHT31;50280;49.864;8.638;2023-02-28T03:49:11;-1.18;71.92
64034;SHT31;50280;49.864;8.638;2023-02-28T03:51:50;-1.20;71.86
64034;SHT31;50280;49.864;8.638;2023-02-28T03:54:27;-1.21;72.09
64034;SHT31;50280;49.864;8.638;2023-02-28T03:57:10;-1.20;72.15
64034;SHT31;50280;49.864;8.638;2023-02-28T03:59:53;-1.20;72.27
64034;SHT31;50280;49.864;8.638;2023-02-28T04:02:31;-1.16;72.14
64034;SHT31;50280;49.864;8.638;2023-02-28T04:05:04;-1.20;72.30
64034;SHT31;50280;49.864;8.638;2023-02-28T04:07:37;-1.20;72.43
64034;SHT31;50280;49.864;8.638;2023-02-28T04:10:10;-1.20;72.73
64034;SHT31;50280;49.864;8.638;2023-02-28T04:12:44;-1.23;72.70
64034;SHT31;50280;49.864;8.638;2023-02-28T04:15:16;-1.23;72.65
64034;SHT31;50280;49.864;8.638;2023-02-28T04:17:49;-1.23;72.71
64034;SHT31;50280;49.864;8.638;2023-02-28T04:20:21;-1.24;72.63
64034;SHT31;50280;49.864;8.638;2023-02-28T04:22:53;-1.24;72.70
64034;SHT31;50280;49.864;8.638;2023-02-28T04:25:25;-1.26;72.86
64034;SHT31;50280;49.864;8.638;2023-02-28T04:27:58;-1.24;72.93
64034;SHT31;50280;49.864;8.638;2023-02-28T04:30:30;-1.26;72.93
64034;SHT31;50280;49.864;8.638;2023-02-28T04:33:02;-1.26;72.95
64034;SHT31;50280;49.864;8.638;2023-02-28T04:35:34;-1.27;72.91
64034;SHT31;50280;49.864;8.638;2023-02-28T04:38:07;-1.23;72.87
64034;SHT31;50280;49.864;8.638;2023-02-28T04:40:39;-1.24;72.77
64034;SHT31;50280;49.864;8.638;2023-02-28T04:43:15;-1.24;72.79
64034;SHT31;50280;49.864;8.638;2023-02-28T04:45:47;-1.27;72.81
64034;SHT31;50280;49.864;8.638;2023-02-28T04:48:19;-1.27;72.98
64034;SHT31;50280;49.864;8.638;2023-02-28T04:50:51;-1.28;72.89
64034;SHT31;50280;49.864;8.638;2023-02-28T04:53:23;-1.31;73.07
64034;SHT31;50280;49.864;8.638;2023-02-28T04:55:55;-1.33;73.06
64034;SHT31;50280;49.864;8.638;2023-02-28T04:58:29;-1.34;73.02
64034;SHT31;50280;49.864;8.638;2023-02-28T05:01:02;-1.34;73.05
64034;SHT31;50280;49.864;8.638;2023-02-28T05:03:36;-1.33;73.06
64034;SHT31;50280;49.864;8.638;2023-02-28T05:06:09;-1.33;73.12
64034;SHT31;50280;49.864;8.638;2023-02-28T05:08:43;-1.33;73.06
64034;SHT31;50280;49.864;8.638;2023-02-28T05:11:19;-1.34;73.00
64034;SHT31;50280;49.864;8.638;2023-02-28T05:13:57;-1.40;73.01
64034;SHT31;50280;49.864;8.638;2023-02-28T05:16:29;-1.35;73.01
64034;SHT31;50280;49.864;8.638;2023-02-28T05:19:01;-1.41;73.08
64034;SHT31;50280;49.864;8.638;2023-02-28T05:21:35;-1.44;73.13
64034;SHT31;50280;49.864;8.638;2023-02-28T05:24:10;-1.44;73.55
64034;SHT31;50280;49.864;8.638;2023-02-28T05:26:43;-1.44;73.60
64034;SHT31;50280;49.864;8.638;2023-02-28T05:29:17;-1.45;73.34
64034;SHT31;50280;49.864;8.638;2023-02-28T05:31:49;-1.47;73.20
64034;SHT31;50280;49.864;8.638;2023-02-28T05:34:21;-1.45;73.01
64034;SHT31;50280;49.864;8.638;2023-02-28T05:36:53;-1.48;73.22
64034;SHT31;50280;49.864;8.638;2023-02-28T05:39:25;-1.47;73.04
64034;SHT31;50280;49.864;8.638;2023-02-28T05:41:57;-1.48;73.11
64034;SHT31;50280;49.864;8.638;2023-02-28T05:44:31;-1.51;73.23
64034;SHT31;50280;49.864;8.638;2023-02-28T05:47:03;-1.51;73.24
64034;SHT31;50280;49.864;8.638;2023-02-28T05:49:35;-1.54;73.19
64034;SHT31;50280;49.864;8.638;2023-02-28T05:52:07;-1.56;73.28
64034;SHT31;50280;49.864;8.638;2023-02-28T05:54:39;-1.55;73.35
64034;SHT31;50280;49.864;8.638;2023-02-28T05:57:11;-1.56;73.30
64034;SHT31;50280;49.864;8.638;2023-02-28T05:59:45;-1.56;73.26
64034;SHT31;50280;49.864;8.638;2023-02-28T06:02:17;-1.52;73.22
64034;SHT31;50280;49.864;8.638;2023-02-28T06:04:49;-1.54;73.26
64034;SHT31;50280;49.864;8.638;2023-02-28T06:07:21;-1.52;73.22
64034;SHT31;50280;49.864;8.638;2023-02-28T06:09:54;-1.51;72.99
64034;SHT31;50280;49.864;8.638;2023-02-28T06:12:26;-1.52;72.99
64034;SHT31;50280;49.864;8.638;2023-02-28T06:14:59;-1.50;72.93
64034;SHT31;50280;49.864;8.638;2023-02-28T06:17:31;-1.52;72.96
64034;SHT31;50280;49.864;8.638;2023-02-28T06:20:04;-1.54;72.99
64034;SHT31;50280;49.864;8.638;2023-02-28T06:22:37;-1.51;72.85
64034;SHT31;50280;49.864;8.638;2023-02-28T06:25:10;-1.48;72.84
64034;SHT31;50280;49.864;8.638;2023-02-28T06:27:43;-1.50;72.86
64034;SHT31;50280;49.864;8.638;2023-02-28T06:30:17;-1.51;72.82
64034;SHT31;50280;49.864;8.638;2023-02-28T06:32:49;-1.50;72.70
64034;SHT31;50280;49.864;8.638;2023-02-28T06:35:21;-1.51;72.65
64034;SHT31;50280;49.864;8.638;2023-02-28T06:37:54;-1.47;72.76
64034;SHT31;50280;49.864;8.638;2023-02-28T06:40:26;-1.48;72.59
64034;SHT31;50280;49.864;8.638;2023-02-28T06:42:58;-1.48;72.61
64034;SHT31;50280;49.864;8.638;2023-02-28T06:45:31;-1.45;72.65
64034;SHT31;50280;49.864;8.638;2023-02-28T06:48:03;-1.47;72.47
64034;SHT31;50280;49.864;8.638;2023-02-28T06:50:36;-1.44;72.47
64034;SHT31;50280;49.864;8.638;2023-02-28T06:53:08;-1.43;72.34
64034;SHT31;50280;49.864;8.638;2023-02-28T06:55:40;-1.38;72.14
64034;SHT31;50280;49.864;8.638;2023-02-28T06:58:13;-1.34;72.04
64034;SHT31;50280;49.864;8.638;2023-02-28T07:00:50;-1.31;72.06
64034;SHT31;50280;49.864;8.638;2023-02-28T07:03:23;-1.23;71.96
64034;SHT31;50280;49.864;8.638;2023-02-28T07:05:55;-1.20;71.78
64034;SHT31;50280;49.864;8.638;2023-02-28T07:08:28;-1.11;71.47
64034;SHT31;50280;49.864;8.638;2023-02-28T07:11:00;-1.03;71.01
64034;SHT31;50280;49.864;8.638;2023-02-28T07:13:32;-0.97;70.83
64034;SHT31;50280;49.864;8.638;2023-02-28T07:16:06;-0.89;70.18
64034;SHT31;50280;49.864;8.638;2023-02-28T07:18:41;-0.79;69.92
64034;SHT31;50280;49.864;8.638;2023-02-28T07:21:14;-0.69;69.56
64034;SHT31;50280;49.864;8.638;2023-02-28T07:23:47;-0.57;69.15
64034;SHT31;50280;49.864;8.638;2023-02-28T07:26:19;-0.47;68.45
64034;SHT31;50280;49.864;8.638;2023-02-28T07:28:52;-0.34;67.43
64034;SHT31;50280;49.864;8.638;2023-02-28T07:31:25;-0.20;66.91
64034;SHT31;50280;49.864;8.638;2023-02-28T07:33:57;-0.09;66.18
64034;SHT31;50280;49.864;8.638;2023-02-28T07:36:29;0.05;65.85
64034;SHT31;50280;49.864;8.638;2023-02-28T07:39:02;0.19;65.07
64034;SHT31;50280;49.864;8.638;2023-02-28T07:41:34;0.28;64.60
64034;SHT31;50280;49.864;8.638;2023-02-28T07:44:06;0.44;64.17
64034;SHT31;50280;49.864;8.638;2023-02-28T07:46:39;0.56;63.60
64034;SHT31;50280;49.864;8.638;2023-02-28T07:49:11;0.72;62.71
64034;SHT31;50280;49.864;8.638;2023-02-28T07:51:43;0.84;62.20
64034;SHT31;50280;49.864;8.638;2023-02-28T07:54:16;1.02;61.97
64034;SHT31;50280;49.864;8.638;2023-02-28T07:56:48;1.14;61.45
64034;SHT31;50280;49.864;8.638;2023-02-28T07:59:20;1.28;60.85
64034;SHT31;50280;49.864;8.638;2023-02-28T08:01:53;1.46;60.27
64034;SHT31;50280;49.864;8.638;2023-02-28T08:04:25;1.63;59.03
64034;SHT31;50280;49.864;8.638;2023-02-28T08:06:58;1.78;58.44
64034;SHT31;50280;49.864;8.638;2023-02-28T08:09:30;1.93;57.83
64034;SHT31;50280;49.864;8.638;2023-02-28T08:12:02;2.08;57.29
64034;SHT31;50280;49.864;8.638;2023-02-28T08:14:34;2.17;56.53
64034;SHT31;50280;49.864;8.638;2023-02-28T08:17:08;2.29;56.45
64034;SHT31;50280;49.864;8.638;2023-02-28T08:19:41;2.43;55.67
64034;SHT31;50280;49.864;8.638;2023-02-28T08:22:16;2.49;55.02
64034;SHT31;50280;49.864;8.638;2023-02-28T08:24:48;2.52;55.04
64034;SHT31;50280;49.864;8.638;2023-02-28T08:27:20;2.58;54.64
64034;SHT31;50280;49.864;8.638;2023-02-28T08:29:53;2.65;54.32
64034;SHT31;50280;49.864;8.638;2023-02-28T08:32:26;2.73;54.27
64034;SHT31;50280;49.864;8.638;2023-02-28T08:34:58;2.84;54.23
64034;SHT31;50280;49.864;8.638;2023-02-28T08:37:30;2.85;53.53
64034;SHT31;50280;49.864;8.638;2023-02-28T08:40:03;2.90;53.08
64034;SHT31;50280;49.864;8.638;2023-02-28T08:42:36;2.85;52.83
64034;SHT31;50280;49.864;8.638;2023-02-28T08:45:09;2.80;53.15
64034;SHT31;50280;49.864;8.638;2023-02-28T08:47:43;2.77;53.19
64034;SHT31;50280;49.864;8.638;2023-02-28T08:50:15;2.79;52.91
64034;SHT31;50280;49.864;8.638;2023-02-28T08:52:47;2.81;53.40
64034;SHT31;50280;49.864;8.638;2023-02-28T08:55:20;2.85;52.70
64034;SHT31;50280;49.864;8.638;2023-02-28T08:57:52;2.85;52.75
64034;SHT31;50280;49.864;8.638;2023-02-28T09:00:24;2.84;52.93
64034;SHT31;50280;49.864;8.638;2023-02-28T09:02:58;2.87;53.06
64034;SHT31;50280;49.864;8.638;2023-02-28T09:05:30;2.85;52.87
64034;SHT31;50280;49.864;8.638;2023-02-28T09:08:02;2.90;53.00
64034;SHT31;50280;49.864;8.638;2023-02-28T09:10:34;2.90;52.29
64034;SHT31;50280;49.864;8.638;2023-02-28T09:13:06;2.90;52.71
64034;SHT31;50280;49.864;8.638;2023-02-28T09:15:39;2.87;52.68
64034;SHT31;50280;49.864;8.638;2023-02-28T09:18:12;2.90;52.74
64034;SHT31;50280;49.864;8.638;2023-02-28T09:20:45;2.94;53.05
64034;SHT31;50280;49.864;8.638;2023-02-28T09:23:18;3.01;52.71
64034;SHT31;50280;49.864;8.638;2023-02-28T09:25:51;3.08;52.35
64034;SHT31;50280;49.864;8.638;2023-02-28T09:28:25;3.15;51.63
64034;SHT31;50280;49.864;8.638;2023-02-28T09:30:58;3.18;51.67
64034;SHT31;50280;49.864;8.638;2023-02-28T09:33:31;3.23;51.64
64034;SHT31;50280;49.864;8.638;2023-02-28T09:36:04;3.29;51.45
64034;SHT31;50280;49.864;8.638;2023-02-28T09:38:37;3.37;51.17
64034;SHT31;50280;49.864;8.638;2023-02-28T09:41:13;3.47;51.13
64034;SHT31;50280;49.864;8.638;2023-02-28T09:43:49;3.53;49.83
64034;SHT31;50280;49.864;8.638;2023-02-28T09:46:28;3.61;49.72
64034;SHT31;50280;49.864;8.638;2023-02-28T09:49:07;3.64;49.29
64034;SHT31;50280;49.864;8.638;2023-02-28T09:51:47;3.67;49.38
64034;SHT31;50280;49.864;8.638;2023-02-28T09:54:28;3.78;48.84
64034;SHT31;50280;49.864;8.638;2023-02-28T09:57:06;3.92;48.54
64034;SHT31;50280;49.864;8.638;2023-02-28T09:59:53;4.05;46.90
64034;SHT31;50280;49.864;8.638;2023-02-28T10:02:43;4.12;46.60
64034;SHT31;50280;49.864;8.638;2023-02-28T10:05:34;4.19;45.87
64034;SHT31;50280;49.864;8.638;2023-02-28T10:08:13;4.22;46.30
64034;SHT31;50280;49.864;8.638;2023-02-28T10:10:50;4.36;45.81
64034;SHT31;50280;49.864;8.638;2023-02-28T10:13:27;4.60;44.94
64034;SHT31;50280;49.864;8.638;2023-02-28T10:16:10;4.74;43.91
64034;SHT31;50280;49.864;8.638;2023-02-28T10:18:49;4.85;43.77
64034;SHT31;50280;49.864;8.638;2023-02-28T10:21:29;5.02;42.95
64034;SHT31;50280;49.864;8.638;2023-02-28T10:24:11;5.20;43.40
64034;SHT31;50280;49.864;8.638;2023-02-28T10:26:52;5.36;42.23
64034;SHT31;50280;49.864;8.638;2023-02-28T10:29:37;5.44;42.70
64034;SHT31;50280;49.864;8.638;2023-02-28T10:32:17;5.65;42.01
64034;SHT31;50280;49.864;8.638;2023-02-28T10:34:51;5.91;41.76
64034;SHT31;50280;49.864;8.638;2023-02-28T10:37:29;6.24;41.88
64034;SHT31;50280;49.864;8.638;2023-02-28T10:40:02;6.47;39.96
64034;SHT31;50280;49.864;8.638;2023-02-28T10:42:35;6.60;39.63
64034;SHT31;50280;49.864;8.638;2023-02-28T10:45:10;6.67;38.77
64034;SHT31;50280;49.864;8.638;2023-02-28T10:47:49;6.79;38.92
64034;SHT31;50280;49.864;8.638;2023-02-28T10:50:28;6.99;38.72
64034;SHT31;50280;49.864;8.638;2023-02-28T10:53:30;7.19;38.18
64034;SHT31;50280;49.864;8.638;2023-02-28T10:56:14;7.28;37.82
64034;SHT31;50280;49.864;8.638;2023-02-28T10:58:54;7.28;37.21
64034;SHT31;50280;49.864;8.638;2023-02-28T11:01:36;7.34;37.59
64034;SHT31;50280;49.864;8.638;2023-02-28T11:04:16;7.54;37.92
64034;SHT31;50280;49.864;8.638;2023-02-28T11:07:03;7.75;36.94
64034;SHT31;50280;49.864;8.638;2023-02-28T11:09:39;7.86;36.89
64034;SHT31;50280;49.864;8.638;2023-02-28T11:12:19;7.88;36.43
64034;SHT31;50280;49.864;8.638;2023-02-28T11:14:56;8.02;36.33
64034;SHT31;50280;49.864;8.638;2023-02-28T11:17:33;8.17;36.81
64034;SHT31;50280;49.864;8.638;2023-02-28T11:20:05;8.26;39.39
64034;SHT31;50280;49.864;8.638;2023-02-28T11:22:53;8.34;37.17
64034;SHT31;50280;49.864;8.638;2023-02-28T11:25:30;8.44;36.97
64034;SHT31;50280;49.864;8.638;2023-02-28T11:28:22;8.55;35.92
64034;SHT31;50280;49.864;8.638;2023-02-28T11:31:04;8.69;35.78
64034;SHT31;50280;49.864;8.638;2023-02-28T11:33:47;8.93;34.80
64034;SHT31;50280;49.864;8.638;2023-02-28T11:36:22;8.93;34.20
64034;SHT31;50280;49.864;8.638;2023-02-28T11:38:58;8.69;35.10
64034;SHT31;50280;49.864;8.638;2023-02-28T11:41:42;8.72;34.72
64034;SHT31;50280;49.864;8.638;2023-02-28T11:47:47;8.93;34.13
64034;SHT31;50280;49.864;8.638;2023-02-28T11:50:39;9.03;34.29
64034;SHT31;50280;49.864;8.638;2023-02-28T11:53:29;9.20;34.42
64034;SHT31;50280;49.864;8.638;2023-02-28T11:56:30;9.34;33.51
64034;SHT31;50280;49.864;8.638;2023-02-28T11:59:19;9.34;33.50
64034;SHT31;50280;49.864;8.638;2023-02-28T12:02:22;9.10;33.66
64034;SHT31;50280;49.864;8.638;2023-02-28T12:05:04;8.86;33.69
64034;SHT31;50280;49.864;8.638;2023-02-28T12:07:57;8.64;34.70
64034;SHT31;50280;49.864;8.638;2023-02-28T12:10:51;8.68;34.68
64034;SHT31;50280;49.864;8.638;2023-02-28T12:13:40;8.86;34.39
64034;SHT31;50280;49.864;8.638;2023-02-28T12:16:31;8.82;34.25
64034;SHT31;50280;49.864;8.638;2023-02-28T12:19:25;8.72;34.90
64034;SHT31;50280;49.864;8.638;2023-02-28T12:22:27;8.95;34.42
64034;SHT31;50280;49.864;8.638;2023-02-28T12:25:19;9.16;33.95
64034;SHT31;50280;49.864;8.638;2023-02-28T12:28:13;9.31;33.65
64034;SHT31;50280;49.864;8.638;2023-02-28T12:30:51;9.33;33.32
64034;SHT31;50280;49.864;8.638;2023-02-28T12:33:34;9.33;32.89
64034;SHT31;50280;49.864;8.638;2023-02-28T12:36:16;9.40;33.42
64034;SHT31;50280;49.864;8.638;2023-02-28T12:38:52;9.50;33.88
64034;SHT31;50280;49.864;8.638;2023-02-28T12:41:33;9.78;33.76
64034;SHT31;50280;49.864;8.638;2023-02-28T12:44:14;9.99;32.59
64034;SHT31;50280;49.864;8.638;2023-02-28T12:46:53;10.07;32.83
64034;SHT31;50280;49.864;8.638;2023-02-28T12:49:36;10.20;32.55
64034;SHT31;50280;49.864;8.638;2023-02-28T12:52:17;10.16;32.57
64034;SHT31;50280;49.864;8.638;2023-02-28T12:55:03;10.13;32.98
64034;SHT31;50280;49.864;8.638;2023-02-28T12:57:48;9.99;32.24
64034;SHT31;50280;49.864;8.638;2023-02-28T13:00:33;9.82;32.75
64034;SHT31;50280;49.864;8.638;2023-02-28T13:03:24;9.68;32.91
64034;SHT31;50280;49.864;8.638;2023-02-28T13:06:39;9.40;33.45
64034;SHT31;50280;49.864;8.638;2023-02-28T13:09:32;9.37;33.57
64034;SHT31;50280;49.864;8.638;2023-02-28T13:12:11;9.52;33.57
64034;SHT31;50280;49.864;8.638;2023-02-28T13:14:45;9.52;33.57
64034;SHT31;50280;49.864;8.638;2023-02-28T13:17:18;9.57;33.83
64034;SHT31;50280;49.864;8.638;2023-02-28T13:19:56;9.61;33.59
64034;SHT31;50280;49.864;8.638;2023-02-28T13:22:39;9.72;33.51
64034;SHT31;50280;49.864;8.638;2023-02-28T13:35:13;9.96;32.95
64034;SHT31;50280;49.864;8.638;2023-02-28T13:38:23;10.04;33.37
64034;SHT31;50280;49.864;8.638;2023-02-28T13:44:19;10.09;31.87
64034;SHT31;50280;49.864;8.638;2023-02-28T13:53:19;10.21;32.62
64034;SHT31;50280;49.864;8.638;2023-02-28T13:56:33;10.20;32.35
64034;SHT31;50280;49.864;8.638;2023-02-28T13:59:21;10.21;32.76
64034;SHT31;50280;49.864;8.638;2023-02-28T14:02:25;10.13;32.02
64034;SHT31;50280;49.864;8.638;2023-02-28T14:05:18;10.03;32.62
64034;SHT31;50280;49.864;8.638;2023-02-28T14:07:54;10.03;32.29
64034;SHT31;50280;49.864;8.638;2023-02-28T14:10:31;10.02;32.89
64034;SHT31;50280;49.864;8.638;2023-02-28T14:13:12;10.02;32.59
64034;SHT31;50280;49.864;8.638;2023-02-28T14:16:10;10.09;32.62
64034;SHT31;50280;49.864;8.638;2023-02-28T14:18:47;10.07;31.80
64034;SHT31;50280;49.864;8.638;2023-02-28T14:21:27;9.95;32.20
64034;SHT31;50280;49.864;8.638;2023-02-28T14:27:33;9.58;32.70
64034;SHT31;50280;49.864;8.638;2023-02-28T14:30:17;9.33;33.50
64034;SHT31;50280;49.864;8.638;2023-02-28T14:33:19;9.30;33.18
64034;SHT31;50280;49.864;8.638;2023-02-28T14:36:10;9.31;33.64
64034;SHT31;50280;49.864;8.638;2023-02-28T14:38:52;9.38;33.38
64034;SHT31;50280;49.864;8.638;2023-02-28T14:41:29;9.41;33.36
64034;SHT31;50280;49.864;8.638;2023-02-28T14:44:14;9.45;33.32
64034;SHT31;50280;49.864;8.638;2023-02-28T14:46:49;9.59;32.97
64034;SHT31;50280;49.864;8.638;2023-02-28T14:49:26;9.75;32.64
64034;SHT31;50280;49.864;8.638;2023-02-28T14:52:02;9.83;32.68
64034;SHT31;50280;49.864;8.638;2023-02-28T14:54:44;9.95;32.55
64034;SHT31;50280;49.864;8.638;2023-02-28T14:57:23;9.96;32.49
64034;SHT31;50280;49.864;8.638;2023-02-28T15:00:01;9.93;32.16
64034;SHT31;50280;49.864;8.638;2023-02-28T15:02:43;9.93;32.27
64034;SHT31;50280;49.864;8.638;2023-02-28T15:05:23;9.92;32.35
64034;SHT31;50280;49.864;8.638;2023-02-28T15:08:01;10.06;32.36
64034;SHT31;50280;49.864;8.638;2023-02-28T15:10:37;10.18;32.72
64034;SHT31;50280;49.864;8.638;2023-02-28T15:13:12;10.27;32.17
64034;SHT31;50280;49.864;8.638;2023-02-28T15:15:49;10.38;31.99
64034;SHT31;50280;49.864;8.638;2023-02-28T15:18:30;10.47;31.91
64034;SHT31;50280;49.864;8.638;2023-02-28T15:21:17;10.57;31.58
64034;SHT31;50280;49.864;8.638;2023-02-28T15:23:54;10.72;31.17
64034;SHT31;50280;49.864;8.638;2023-02-28T15:26:31;10.79;31.16
64034;SHT31;50280;49.864;8.638;2023-02-28T15:29:11;10.91;30.97
64034;SHT31;50280;49.864;8.638;2023-02-28T15:31:55;10.79;31.16
64034;SHT31;50280;49.864;8.638;2023-02-28T15:34:33;10.72;31.39
64034;SHT31;50280;49.864;8.638;2023-02-28T15:40:05;10.78;31.04
64034;SHT31;50280;49.864;8.638;2023-02-28T15:43:00;10.73;31.13
64034;SHT31;50280;49.864;8.638;2023-02-28T15:45:38;10.68;31.60
64034;SHT31;50280;49.864;8.638;2023-02-28T15:48:18;10.62;31.18
64034;SHT31;50280;49.864;8.638;2023-02-28T15:50:54;10.57;31.67
64034;SHT31;50280;49.864;8.638;2023-02-28T15:53:33;10.47;31.83
64034;SHT31;50280;49.864;8.638;2023-02-28T15:56:16;10.31;32.11
64034;SHT31;50280;49.864;8.638;2023-02-28T15:58:56;10.17;32.29
64034;SHT31;50280;49.864;8.638;2023-02-28T16:01:31;10.02;33.09
64034;SHT31;50280;49.864;8.638;2023-02-28T16:04:11;9.89;33.64
64034;SHT31;50280;49.864;8.638;2023-02-28T16:06:59;9.79;33.38
64034;SHT31;50280;49.864;8.638;2023-02-28T16:09:34;9.62;33.54
64034;SHT31;50280;49.864;8.638;2023-02-28T16:12:08;9.37;33.69
64034;SHT31;50280;49.864;8.638;2023-02-28T16:14:40;9.20;34.21
64034;SHT31;50280;49.864;8.638;2023-02-28T16:17:15;9.02;34.26
64034;SHT31;50280;49.864;8.638;2023-02-28T16:19:54;8.80;34.85
64034;SHT31;50280;49.864;8.638;2023-02-28T16:22:27;8.57;34.96
64034;SHT31;50280;49.864;8.638;2023-02-28T16:24:59;8.36;35.52
64034;SHT31;50280;49.864;8.638;2023-02-28T16:27:33;8.12;35.88
64034;SHT31;50280;49.864;8.638;2023-02-28T16:30:09;7.89;36.66
64034;SHT31;50280;49.864;8.638;2023-02-28T16:32:52;7.67;37.37
64034;SHT31;50280;49.864;8.638;2023-02-28T16:35:28;7.43;37.98
64034;SHT31;50280;49.864;8.638;2023-02-28T16:38:00;7.23;38.67
64034;SHT31;50280;49.864;8.638;2023-02-28T16:40:33;7.02;38.70
64034;SHT31;50280;49.864;8.638;2023-02-28T16:43:09;6.84;39.23
64034;SHT31;50280;49.864;8.638;2023-02-28T16:45:50;6.70;39.42
64034;SHT31;50280;49.864;8.638;2023-02-28T16:48:27;6.53;39.93
64034;SHT31;50280;49.864;8.638;2023-02-28T16:51:00;6.40;40.52
64034;SHT31;50280;49.864;8.638;2023-02-28T16:53:32;6.32;40.95
64034;SHT31;50280;49.864;8.638;2023-02-28T16:56:05;6.22;40.95
64034;SHT31;50280;49.864;8.638;2023-02-28T16:58:43;6.12;41.16
64034;SHT31;50280;49.864;8.638;2023-02-28T17:01:16;6.01;41.56
64034;SHT31;50280;49.864;8.638;2023-02-28T17:03:49;5.87;41.85
64034;SHT31;50280;49.864;8.638;2023-02-28T17:06:23;5.78;42.59
64034;SHT31;50280;49.864;8.638;2023-02-28T17:08:59;5.71;42.93
64034;SHT31;50280;49.864;8.638;2023-02-28T17:11:31;5.65;43.39
64034;SHT31;50280;49.864;8.638;2023-02-28T17:14:03;5.60;43.94
64034;SHT31;50280;49.864;8.638;2023-02-28T17:16:35;5.48;44.17